createdAt,value
2024-01-24T00:01:21.550Z,30.92
2024-01-24T00:03:48.529Z,26.20
2024-01-24T00:06:15.133Z,28.85
2024-01-24T00:08:41.885Z,27.08
2024-01-24T00:11:08.372Z,19.98
2024-01-24T00:13:35.066Z,37.80
2024-01-24T00:16:01.591Z,24.20
2024-01-24T00:18:28.261Z,25.08
2024-01-24T00:20:55.400Z,28.55
2024-01-24T00:23:22.078Z,26.50
2024-01-24T00:25:48.580Z,18.15
2024-01-24T00:28:18.406Z,24.52
2024-01-24T00:30:45.255Z,21.88
2024-01-24T00:33:12.150Z,24.88
2024-01-24T00:35:40.275Z,23.77
2024-01-24T00:38:06.938Z,25.80
2024-01-24T00:40:33.456Z,24.52
2024-01-24T00:43:00.185Z,25.30
2024-01-24T00:45:27.613Z,17.70
2024-01-24T00:47:54.286Z,19.92
2024-01-24T00:50:20.873Z,18.75
2024-01-24T00:52:52.804Z,22.77
2024-01-24T00:55:20.800Z,20.48
2024-01-24T00:57:47.340Z,20.38
2024-01-24T01:00:14.326Z,14.90
2024-01-24T01:02:40.881Z,24.05
2024-01-24T01:05:09.043Z,20.33
2024-01-24T01:07:35.620Z,23.00
2024-01-24T01:10:02.278Z,14.55
2024-01-24T01:12:28.828Z,17.52
2024-01-24T01:14:55.425Z,18.52
2024-01-24T01:17:21.934Z,22.25
2024-01-24T01:19:48.450Z,13.60
2024-01-24T01:22:15.916Z,10.35
2024-01-24T01:24:42.453Z,14.07
2024-01-24T01:27:09.963Z,17.80
2024-01-24T01:29:36.814Z,9.02
2024-01-24T01:32:03.634Z,19.77
2024-01-24T01:34:30.361Z,10.43
2024-01-24T01:36:57.057Z,8.68
2024-01-24T01:39:23.674Z,9.75
2024-01-24T01:41:50.404Z,11.18
2024-01-24T01:44:17.042Z,12.10
2024-01-24T01:46:46.163Z,14.18
2024-01-24T01:49:14.043Z,10.20
2024-01-24T01:51:42.623Z,8.05
2024-01-24T01:54:10.275Z,8.48
2024-01-24T01:56:37.300Z,9.63
2024-01-24T01:59:04.052Z,7.88
2024-01-24T02:01:30.650Z,6.57
2024-01-24T02:03:57.837Z,11.63
2024-01-24T02:13:58.465Z,8.57
2024-01-24T02:16:24.973Z,6.53
2024-01-24T02:18:51.721Z,10.63
2024-01-24T02:21:18.405Z,8.35
2024-01-24T02:23:46.247Z,7.13
2024-01-24T02:26:12.880Z,13.40
2024-01-24T02:28:39.395Z,10.25
2024-01-24T02:31:05.924Z,11.20
2024-01-24T02:33:32.556Z,9.10
2024-01-24T02:35:59.304Z,10.68
2024-01-24T02:38:25.807Z,6.13
2024-01-24T02:40:52.309Z,7.50
2024-01-24T02:43:18.821Z,8.43
2024-01-24T02:45:45.359Z,9.02
2024-01-24T02:48:12.206Z,10.50
2024-01-24T02:50:38.760Z,9.50
2024-01-24T02:53:05.262Z,10.57
2024-01-24T02:55:31.899Z,8.68
2024-01-24T02:57:58.617Z,7.32
2024-01-24T03:00:25.229Z,8.40
2024-01-24T03:02:52.267Z,9.68
2024-01-24T03:05:19.064Z,6.78
2024-01-24T03:07:45.789Z,4.35
2024-01-24T03:10:13.667Z,7.72
2024-01-24T03:12:40.230Z,7.85
2024-01-24T03:15:07.294Z,4.07
2024-01-24T03:17:34.023Z,12.10
2024-01-24T03:20:00.963Z,8.52
2024-01-24T03:22:27.797Z,6.30
2024-01-24T03:24:54.383Z,11.07
2024-01-24T03:27:20.948Z,9.10
2024-01-24T03:29:47.461Z,10.95
2024-01-24T03:32:14.154Z,7.65
2024-01-24T03:34:40.703Z,9.95
2024-01-24T03:37:07.711Z,10.25
2024-01-24T03:39:34.360Z,13.23
2024-01-24T03:42:01.025Z,13.93
2024-01-24T03:44:27.648Z,8.15
2024-01-24T03:46:54.154Z,9.60
2024-01-24T03:49:22.901Z,9.80
2024-01-24T03:51:49.851Z,7.63
2024-01-24T03:54:16.568Z,12.48
2024-01-24T03:56:43.452Z,15.80
2024-01-24T03:59:10.150Z,6.13
2024-01-24T04:01:36.816Z,10.32
2024-01-24T04:04:03.743Z,6.35
2024-01-24T04:06:30.457Z,9.07
2024-01-24T04:08:57.277Z,8.32
2024-01-24T04:11:23.921Z,10.45
2024-01-24T04:13:57.712Z,10.27
2024-01-24T04:16:24.419Z,9.57
2024-01-24T04:18:54.181Z,7.65
2024-01-24T04:21:20.858Z,12.38
2024-01-24T04:23:47.404Z,10.35
2024-01-24T04:26:13.972Z,8.02
2024-01-24T04:28:40.482Z,9.77
2024-01-24T04:34:57.907Z,13.50
2024-01-24T04:37:25.106Z,6.80
2024-01-24T04:39:53.498Z,7.68
2024-01-24T04:42:20.389Z,8.40
2024-01-24T04:44:47.059Z,6.97
2024-01-24T04:47:16.721Z,8.35
2024-01-24T04:49:45.495Z,6.20
2024-01-24T04:52:13.245Z,7.32
2024-01-24T04:54:39.990Z,9.65
2024-01-24T04:57:06.617Z,11.40
2024-01-24T04:59:42.482Z,8.85
2024-01-24T05:02:17.328Z,22.52
2024-01-24T05:04:44.132Z,7.00
2024-01-24T05:07:10.988Z,12.02
2024-01-24T05:09:37.567Z,8.77
2024-01-24T05:12:04.385Z,13.55
2024-01-24T05:14:30.891Z,10.48
2024-01-24T05:16:57.372Z,13.02
2024-01-24T05:19:23.917Z,5.90
2024-01-24T05:21:50.633Z,7.63
2024-01-24T05:24:17.422Z,18.83
2024-01-24T05:26:47.121Z,6.93
2024-01-24T05:29:13.759Z,13.13
2024-01-24T05:31:41.240Z,7.07
2024-01-24T05:34:09.344Z,8.63
2024-01-24T05:36:37.074Z,6.68
2024-01-24T05:39:08.303Z,5.75
2024-01-24T05:41:36.790Z,4.10
2024-01-24T05:44:03.533Z,4.90
2024-01-24T05:46:30.040Z,5.97
2024-01-24T05:48:57.612Z,5.80
2024-01-24T05:51:24.283Z,6.60
2024-01-24T05:53:50.864Z,11.93
2024-01-24T05:56:17.478Z,5.88
2024-01-24T05:58:44.023Z,5.00
2024-01-24T06:01:12.387Z,8.57
2024-01-24T06:03:39.076Z,7.65
2024-01-24T06:06:06.635Z,6.30
2024-01-24T06:08:33.315Z,5.88
2024-01-24T06:11:00.368Z,5.35
2024-01-24T06:13:28.698Z,4.30
2024-01-24T06:15:56.169Z,10.88
2024-01-24T06:18:23.044Z,4.45
2024-01-24T06:20:49.819Z,7.22
2024-01-24T06:23:16.530Z,5.60
2024-01-24T06:25:43.441Z,4.63
2024-01-24T06:28:10.467Z,4.55
2024-01-24T06:30:37.091Z,5.68
2024-01-24T06:33:03.847Z,10.65
2024-01-24T06:35:32.374Z,6.95
2024-01-24T06:37:59.110Z,6.57
2024-01-24T06:40:25.831Z,5.38
2024-01-24T06:42:52.667Z,2.75
2024-01-24T06:45:19.947Z,5.72
2024-01-24T06:47:46.856Z,8.77
2024-01-24T06:50:14.958Z,9.55
2024-01-24T06:52:42.030Z,3.72
2024-01-24T06:55:09.917Z,5.03
2024-01-24T06:57:36.849Z,7.40
2024-01-24T07:00:06.246Z,5.00
2024-01-24T07:02:33.473Z,4.22
2024-01-24T07:05:00.153Z,7.78
2024-01-24T07:07:26.971Z,4.28
2024-01-24T07:09:53.628Z,5.38
2024-01-24T07:12:21.763Z,3.10
2024-01-24T07:14:52.602Z,4.35
2024-01-24T07:17:19.848Z,5.65
2024-01-24T07:19:46.538Z,5.15
2024-01-24T07:22:13.942Z,5.15
2024-01-24T07:24:45.507Z,7.68
2024-01-24T07:27:12.498Z,4.88
2024-01-24T07:29:39.708Z,12.75
2024-01-24T07:32:06.815Z,17.48
2024-01-24T07:34:33.506Z,12.88
2024-01-24T07:37:00.229Z,13.35
2024-01-24T07:39:26.792Z,13.93
2024-01-24T07:41:53.439Z,18.30
2024-01-24T07:44:21.203Z,16.55
2024-01-24T07:46:47.820Z,26.30
2024-01-24T07:49:14.695Z,24.17
2024-01-24T07:51:46.524Z,12.65
2024-01-24T07:54:14.123Z,22.15
2024-01-24T07:56:40.787Z,16.48
2024-01-24T07:59:09.270Z,26.90
2024-01-24T08:01:37.163Z,17.65
2024-01-24T08:04:04.542Z,21.58
2024-01-24T08:06:31.413Z,19.60
2024-01-24T08:08:58.154Z,25.65
2024-01-24T08:11:26.097Z,19.83
2024-01-24T08:13:53.348Z,16.60
2024-01-24T08:16:20.302Z,21.00
2024-01-24T08:18:47.205Z,17.15
2024-01-24T08:21:14.700Z,20.70
2024-01-24T08:23:48.816Z,22.80
2024-01-24T08:26:18.102Z,23.75
2024-01-24T08:28:44.796Z,27.08
2024-01-24T08:31:12.081Z,24.88
2024-01-24T08:33:39.458Z,27.25
2024-01-24T08:36:06.651Z,21.95
2024-01-24T08:38:33.279Z,13.90
2024-01-24T08:41:00.761Z,18.33
2024-01-24T08:43:27.340Z,28.42
2024-01-24T08:45:53.963Z,16.58
2024-01-24T08:48:22.916Z,24.95
2024-01-24T08:50:49.685Z,16.05
2024-01-24T08:53:16.246Z,22.55
2024-01-24T08:55:43.007Z,23.27
2024-01-24T08:58:10.820Z,15.05
2024-01-24T09:00:38.007Z,22.83
2024-01-24T09:03:05.039Z,21.40
2024-01-24T09:05:32.611Z,21.27
2024-01-24T09:07:59.213Z,20.35
2024-01-24T09:10:26.508Z,15.98
2024-01-24T09:12:53.222Z,18.15
2024-01-24T09:15:20.092Z,22.70
2024-01-24T09:17:46.849Z,22.17
2024-01-24T09:20:13.634Z,18.95
2024-01-24T09:22:40.418Z,22.92
2024-01-24T09:25:08.854Z,15.52
2024-01-24T09:27:36.835Z,17.98
2024-01-24T09:30:05.375Z,20.23
2024-01-24T09:32:32.008Z,20.25
2024-01-24T09:34:59.009Z,18.13
2024-01-24T09:37:25.954Z,20.73
2024-01-24T09:39:55.420Z,20.75
2024-01-24T09:42:26.537Z,28.65
2024-01-24T09:44:54.925Z,16.60
2024-01-24T09:47:25.186Z,16.67
2024-01-24T09:49:52.353Z,21.40
2024-01-24T09:52:25.053Z,22.17
2024-01-24T09:54:57.590Z,21.35
2024-01-24T09:57:26.236Z,23.92
2024-01-24T09:59:55.172Z,21.00
2024-01-24T10:02:22.112Z,21.10
2024-01-24T10:04:52.188Z,21.50
2024-01-24T10:07:20.286Z,21.35
2024-01-24T10:09:48.068Z,21.92
2024-01-24T10:12:14.707Z,20.13
2024-01-24T10:14:44.073Z,16.70
2024-01-24T10:17:12.489Z,17.48
2024-01-24T10:19:39.519Z,19.33
2024-01-24T10:22:09.411Z,20.05
2024-01-24T10:24:37.602Z,17.00
2024-01-24T10:27:04.508Z,21.75
2024-01-24T10:29:32.012Z,23.27
2024-01-24T10:31:59.155Z,25.80
2024-01-24T10:34:29.373Z,28.42
2024-01-24T10:36:56.342Z,31.73
2024-01-24T10:39:26.076Z,29.42
2024-01-24T10:41:55.954Z,24.95
2024-01-24T10:44:26.704Z,32.63
2024-01-24T10:46:53.495Z,26.70
2024-01-24T10:49:22.703Z,30.73
2024-01-24T10:51:49.771Z,31.80
2024-01-24T10:54:18.711Z,28.65
2024-01-24T10:56:50.098Z,38.05
2024-01-24T10:59:18.954Z,22.42
2024-01-24T11:01:46.454Z,32.42
2024-01-24T11:04:17.745Z,24.63
2024-01-24T11:07:03.173Z,27.30
2024-01-24T11:09:47.145Z,24.27
2024-01-24T11:12:13.865Z,35.08
2024-01-24T11:14:46.250Z,32.60
2024-01-24T11:17:16.005Z,28.20
2024-01-24T11:19:43.960Z,29.10
2024-01-24T11:22:20.117Z,28.15
2024-01-24T11:24:54.438Z,31.05
2024-01-24T11:27:25.248Z,27.65
2024-01-24T11:29:55.839Z,36.22
2024-01-24T11:32:56.971Z,30.90
2024-01-24T11:35:42.496Z,31.40
2024-01-24T11:38:25.588Z,23.33
2024-01-24T11:41:11.568Z,24.15
2024-01-24T11:43:40.942Z,32.80
2024-01-24T11:46:10.217Z,31.27
2024-01-24T11:48:39.853Z,27.60
2024-01-24T11:51:11.067Z,30.52
2024-01-24T11:53:38.101Z,30.45
2024-01-24T11:56:23.795Z,25.20
2024-01-24T11:58:52.022Z,23.20
2024-01-24T12:01:18.745Z,24.35
2024-01-24T12:03:49.841Z,20.63
2024-01-24T12:06:18.094Z,18.23
2024-01-24T12:08:49.599Z,29.92
2024-01-24T12:11:18.337Z,19.65
2024-01-24T12:13:45.908Z,25.40
2024-01-24T12:16:18.506Z,28.30
2024-01-24T12:18:45.364Z,30.45
2024-01-24T12:21:12.397Z,21.90
2024-01-24T12:23:39.124Z,24.05
2024-01-24T12:26:05.833Z,22.92
2024-01-24T12:28:32.683Z,23.58
2024-01-24T12:30:59.790Z,20.85
2024-01-24T12:33:34.137Z,25.27
2024-01-24T12:36:06.592Z,21.30
2024-01-24T12:38:36.120Z,25.50
2024-01-24T12:41:02.849Z,32.55
2024-01-24T12:43:29.470Z,19.45
2024-01-24T12:45:56.621Z,30.63
2024-01-24T12:48:24.728Z,25.45
2024-01-24T12:50:52.762Z,26.15
2024-01-24T12:53:22.265Z,24.70
2024-01-24T12:55:49.219Z,26.73
2024-01-24T12:58:18.775Z,27.20
2024-01-24T13:00:45.776Z,32.00
2024-01-24T13:03:12.482Z,28.40
2024-01-24T13:05:46.398Z,28.45
2024-01-24T13:08:15.286Z,26.63
2024-01-24T13:10:46.557Z,24.85
2024-01-24T13:13:14.434Z,26.70
2024-01-24T13:15:41.825Z,24.10
2024-01-24T13:18:09.860Z,26.98
2024-01-24T13:20:36.864Z,30.92
2024-01-24T13:23:03.466Z,37.95
2024-01-24T13:25:30.404Z,27.67
2024-01-24T13:27:57.592Z,25.40
2024-01-24T13:30:24.290Z,33.88
2024-01-24T13:32:51.044Z,33.15
2024-01-24T13:35:18.345Z,33.17
2024-01-24T13:37:45.004Z,31.52
2024-01-24T13:40:13.185Z,28.88
2024-01-24T13:42:40.840Z,26.58
2024-01-24T13:45:08.036Z,29.70
2024-01-24T13:47:34.975Z,37.47
2024-01-24T13:50:02.077Z,24.90
2024-01-24T13:52:29.162Z,30.40
2024-01-24T13:54:55.855Z,25.92
2024-01-24T13:57:22.627Z,26.48
2024-01-24T13:59:49.754Z,31.52
2024-01-24T14:02:16.636Z,25.17
2024-01-24T14:04:44.195Z,28.70
2024-01-24T14:07:11.848Z,28.55
2024-01-24T14:09:40.483Z,28.90
2024-01-24T14:12:07.734Z,27.60
2024-01-24T14:14:34.460Z,27.45
2024-01-24T14:17:01.110Z,29.98
2024-01-24T14:19:27.782Z,30.05
2024-01-24T14:21:54.566Z,27.38
2024-01-24T14:24:21.506Z,27.83
2024-01-24T14:26:49.837Z,33.40
2024-01-24T14:29:16.794Z,22.55
2024-01-24T14:31:43.569Z,28.13
2024-01-24T14:34:10.617Z,32.08
2024-01-24T14:36:38.257Z,26.35
2024-01-24T14:39:05.721Z,27.05
2024-01-24T14:41:32.511Z,26.55
2024-01-24T14:43:59.181Z,32.22
2024-01-24T14:46:26.730Z,28.20
2024-01-24T14:48:53.857Z,31.15
2024-01-24T14:51:21.212Z,32.65
2024-01-24T14:53:48.105Z,30.00
2024-01-24T14:56:15.504Z,22.08
2024-01-24T14:58:42.833Z,24.88
2024-01-24T15:01:10.284Z,28.25
2024-01-24T15:03:37.913Z,27.35
2024-01-24T15:06:05.269Z,32.13
2024-01-24T15:08:31.924Z,30.98
2024-01-24T15:10:58.735Z,32.40
2024-01-24T15:13:26.079Z,35.35
2024-01-24T15:15:52.791Z,27.73
2024-01-24T15:18:20.513Z,25.70
2024-01-24T15:20:57.741Z,25.98
2024-01-24T15:23:33.263Z,31.52
2024-01-24T15:25:59.858Z,21.33
2024-01-24T15:28:27.207Z,30.35
2024-01-24T15:30:53.960Z,24.58
2024-01-24T15:33:20.735Z,34.92
2024-01-24T15:35:49.554Z,36.67
2024-01-24T15:38:17.100Z,29.40
2024-01-24T15:40:43.748Z,26.75
2024-01-24T15:43:11.832Z,23.35
2024-01-24T15:45:38.621Z,22.98
2024-01-24T15:48:05.722Z,30.52
2024-01-24T15:50:32.540Z,27.42
2024-01-24T15:52:59.074Z,29.90
2024-01-24T15:55:25.674Z,28.55
2024-01-24T15:57:52.445Z,26.92
2024-01-24T16:00:21.126Z,17.95
2024-01-24T16:02:48.146Z,24.73
2024-01-24T16:05:49.978Z,21.38
2024-01-24T16:08:18.149Z,25.73
2024-01-24T16:10:45.525Z,22.02
2024-01-24T16:13:12.216Z,21.85
2024-01-24T16:15:39.283Z,26.88
2024-01-24T16:18:06.284Z,31.67
2024-01-24T16:20:33.964Z,18.95
2024-01-24T16:23:01.018Z,30.80
2024-01-24T16:25:27.933Z,23.25
2024-01-24T16:27:55.788Z,28.15
2024-01-24T16:30:28.597Z,20.33
2024-01-24T16:32:56.290Z,23.05
2024-01-24T16:35:23.598Z,23.40
2024-01-24T16:37:50.355Z,26.08
2024-01-24T16:40:17.051Z,26.00
2024-01-24T16:42:43.727Z,23.58
2024-01-24T16:45:12.638Z,27.23
2024-01-24T16:47:40.223Z,18.20
2024-01-24T16:50:07.821Z,24.38
2024-01-24T16:52:34.561Z,32.65
2024-01-24T16:55:01.608Z,30.02
2024-01-24T16:57:29.348Z,23.55
2024-01-24T16:59:58.338Z,25.00
2024-01-24T17:02:34.162Z,27.00
2024-01-24T17:05:06.504Z,26.67
2024-01-24T17:07:33.325Z,26.10
2024-01-24T17:10:01.369Z,22.30
2024-01-24T17:12:29.407Z,31.65
2024-01-24T17:14:56.543Z,27.90
2024-01-24T17:17:23.215Z,25.60
2024-01-24T17:19:49.843Z,18.60
2024-01-24T17:22:17.295Z,26.02
2024-01-24T17:24:44.114Z,19.10
2024-01-24T17:27:10.820Z,27.10
2024-01-24T17:29:39.342Z,28.35
2024-01-24T17:32:06.219Z,32.22
2024-01-24T17:34:32.929Z,26.48
2024-01-24T17:36:59.621Z,25.77
2024-01-24T17:39:26.385Z,29.40
2024-01-24T17:41:53.247Z,29.67
2024-01-24T17:44:19.812Z,23.98
2024-01-24T17:46:46.537Z,30.75
2024-01-24T17:49:13.228Z,22.38
2024-01-24T17:51:39.878Z,27.85
2024-01-24T17:54:06.579Z,34.15
2024-01-24T17:56:34.248Z,35.47
2024-01-24T17:59:01.808Z,33.38
2024-01-24T18:01:29.301Z,35.40
2024-01-24T18:03:56.288Z,29.52
2024-01-24T18:06:22.992Z,25.15
2024-01-24T18:08:50.469Z,34.97
2024-01-24T18:11:17.245Z,41.22
2024-01-24T18:13:43.895Z,32.30
2024-01-24T18:16:12.593Z,37.53
2024-01-24T18:18:39.545Z,36.08
2024-01-24T18:21:08.526Z,37.72
2024-01-24T18:23:36.615Z,28.48
2024-01-24T18:26:03.171Z,28.92
2024-01-24T18:28:29.750Z,35.92
2024-01-24T18:30:56.727Z,29.00
2024-01-24T18:33:23.560Z,44.90
2024-01-24T18:35:50.451Z,38.55
2024-01-24T18:38:19.055Z,31.13
2024-01-24T18:40:45.582Z,39.75
2024-01-24T18:43:12.181Z,37.05
2024-01-24T18:45:38.964Z,34.25
2024-01-24T18:48:07.576Z,37.05
2024-01-24T18:50:34.303Z,32.38
2024-01-24T18:53:02.127Z,42.65
2024-01-24T18:55:28.791Z,34.72
2024-01-24T18:57:55.375Z,32.42
2024-01-24T19:00:22.784Z,42.63
2024-01-24T19:02:50.834Z,40.78
2024-01-24T19:05:23.665Z,37.63
2024-01-24T19:07:57.809Z,35.53
2024-01-24T19:10:25.381Z,30.52
2024-01-24T19:12:52.770Z,42.97
2024-01-24T19:15:21.003Z,39.10
2024-01-24T19:17:48.456Z,29.38
2024-01-24T19:20:16.084Z,34.90
2024-01-24T19:22:43.826Z,30.77
2024-01-24T19:25:10.398Z,32.28
2024-01-24T19:27:37.082Z,34.08
2024-01-24T19:30:04.046Z,37.03
2024-01-24T19:32:35.446Z,32.53
2024-01-24T19:35:04.367Z,32.35
2024-01-24T19:37:33.429Z,44.22
2024-01-24T19:40:00.534Z,35.67
2024-01-24T19:42:28.345Z,36.78
2024-01-24T19:44:56.070Z,42.42
2024-01-24T19:47:28.904Z,35.92
2024-01-24T19:49:58.730Z,37.20
2024-01-24T19:52:25.312Z,29.88
2024-01-24T19:54:52.053Z,42.10
2024-01-24T19:57:19.424Z,37.55
2024-01-24T19:59:46.073Z,37.38
2024-01-24T20:02:12.611Z,42.65
2024-01-24T20:04:39.126Z,40.80
2024-01-24T20:07:05.834Z,30.55
2024-01-24T20:09:33.285Z,38.65
2024-01-24T20:11:59.906Z,37.53
2024-01-24T20:14:26.440Z,44.38
2024-01-24T20:16:54.138Z,42.65
2024-01-24T20:19:20.954Z,32.63
2024-01-24T20:21:48.293Z,36.90
2024-01-24T20:24:15.730Z,40.30
2024-01-24T20:26:42.246Z,41.97
2024-01-24T20:29:09.787Z,39.33
2024-01-24T20:31:36.334Z,30.00
2024-01-24T20:34:03.807Z,27.42
2024-01-24T20:36:30.837Z,40.72
2024-01-24T20:38:57.610Z,44.88
2024-01-24T20:41:24.968Z,39.08
2024-01-24T20:43:52.565Z,40.33
2024-01-24T20:46:19.181Z,42.55
2024-01-24T20:48:46.038Z,39.92
2024-01-24T20:51:13.927Z,34.35
2024-01-24T20:53:40.571Z,36.90
2024-01-24T20:56:07.463Z,46.95
2024-01-24T20:58:34.680Z,37.47
2024-01-24T21:01:05.158Z,39.03
2024-01-24T21:03:34.472Z,35.10
2024-01-24T21:06:01.359Z,41.13
2024-01-24T21:08:27.996Z,39.35
2024-01-24T21:10:59.980Z,45.30
2024-01-24T21:13:30.016Z,38.55
2024-01-24T21:15:56.736Z,40.33
2024-01-24T21:18:23.669Z,28.90
2024-01-24T21:20:50.915Z,36.95
2024-01-24T21:23:17.890Z,42.58
2024-01-24T21:25:44.466Z,32.30
2024-01-24T21:28:11.020Z,36.15
2024-01-24T21:30:37.720Z,42.22
2024-01-24T21:33:04.381Z,35.03
2024-01-24T21:35:30.911Z,36.35
2024-01-24T21:37:57.549Z,34.33
2024-01-24T21:40:24.242Z,37.67
2024-01-24T21:42:51.503Z,32.35
2024-01-24T21:45:19.145Z,35.13
2024-01-24T21:47:45.733Z,36.78
2024-01-24T21:50:12.965Z,39.28
2024-01-24T21:52:39.577Z,38.58
2024-01-24T21:55:07.537Z,36.00
2024-01-24T21:57:34.400Z,39.20
2024-01-24T22:00:01.794Z,25.55
2024-01-24T22:02:30.275Z,31.50
2024-01-24T22:04:56.791Z,35.55
2024-01-24T22:07:23.477Z,32.70
2024-01-24T22:09:52.479Z,35.97
2024-01-24T22:12:19.133Z,32.53
2024-01-24T22:14:45.689Z,38.92
2024-01-24T22:17:12.726Z,41.28
2024-01-24T22:19:39.350Z,50.80
2024-01-24T22:22:06.259Z,35.45
2024-01-24T22:24:33.041Z,34.08
2024-01-24T22:26:59.635Z,31.75
2024-01-24T22:29:26.200Z,40.83
2024-01-24T22:31:54.616Z,38.08
2024-01-24T22:34:22.548Z,36.58
2024-01-24T22:36:49.305Z,39.00
2024-01-24T22:39:16.258Z,32.58
2024-01-24T22:41:43.026Z,28.10
2024-01-24T22:44:11.150Z,32.10
2024-01-24T22:46:43.312Z,35.15
2024-01-24T22:49:11.422Z,39.17
2024-01-24T22:51:39.077Z,35.53
2024-01-24T22:54:05.788Z,27.58
2024-01-24T22:56:32.364Z,33.40
2024-01-24T22:59:00.499Z,32.78
2024-01-24T23:01:28.852Z,30.02
2024-01-24T23:03:55.733Z,35.08
2024-01-24T23:06:22.867Z,32.22
2024-01-24T23:08:49.484Z,38.42
2024-01-24T23:11:16.189Z,47.80
2024-01-24T23:13:42.750Z,30.67
2024-01-24T23:16:09.426Z,31.52
2024-01-24T23:18:36.379Z,35.90
2024-01-24T23:21:03.108Z,40.85
2024-01-24T23:23:29.616Z,34.30
2024-01-24T23:25:56.292Z,34.70
2024-01-24T23:28:23.883Z,38.70
2024-01-24T23:30:50.704Z,32.63
2024-01-24T23:33:17.509Z,31.25
2024-01-24T23:35:44.761Z,43.20
2024-01-24T23:38:11.587Z,34.95
2024-01-24T23:40:38.226Z,36.60
2024-01-24T23:43:05.000Z,27.48
2024-01-24T23:45:39.037Z,23.13
2024-01-24T23:48:06.071Z,26.00
2024-01-24T23:50:32.945Z,30.65
2024-01-24T23:53:00.577Z,33.65
2024-01-24T23:55:27.558Z,29.58
2024-01-24T23:57:57.335Z,34.55
